sensor_id;sensor_type;location;lat;lon;timestamp;P1;durP1;ratioP1;P2;durP2;ratioP2
54871;SDS011;43914;57.680;11.982;2022-11-15T00:00:54;10.80;;;4.55;;
54871;SDS011;43914;57.680;11.982;2022-11-15T00:03:21;8.88;;;4.40;;
54871;SDS011;43914;57.680;11.982;2022-11-15T00:05:52;10.25;;;4.95;;
54871;SDS011;43914;57.680;11.982;2022-11-15T00:08:18;9.13;;;4.40;;
54871;SDS011;43914;57.680;11.982;2022-11-15T00:10:59;9.78;;;4.37;;
54871;SDS011;43914;57.680;11.982;2022-11-15T00:13:24;9.45;;;4.20;;
54871;SDS011;43914;57.680;11.982;2022-11-15T00:15:50;9.50;;;4.47;;
54871;SDS011;43914;57.680;11.982;2022-11-15T00:18:17;10.10;;;4.45;;
54871;SDS011;43914;57.680;11.982;2022-11-15T00:20:43;10.08;;;4.65;;
54871;SDS011;43914;57.680;11.982;2022-11-15T00:23:10;11.25;;;4.60;;
54871;SDS011;43914;57.680;11.982;2022-11-15T00:25:36;8.40;;;4.00;;
54871;SDS011;43914;57.680;11.982;2022-11-15T00:28:02;9.73;;;4.12;;
54871;SDS011;43914;57.680;11.982;2022-11-15T00:30:28;9.55;;;4.17;;
54871;SDS011;43914;57.680;11.982;2022-11-15T00:32:55;12.23;;;4.60;;
54871;SDS011;43914;57.680;11.982;2022-11-15T00:35:21;9.40;;;4.15;;
54871;SDS011;43914;57.680;11.982;2022-11-15T00:37:47;9.05;;;4.22;;
54871;SDS011;43914;57.680;11.982;2022-11-15T00:40:13;8.33;;;4.10;;
54871;SDS011;43914;57.680;11.982;2022-11-15T00:42:40;10.80;;;4.28;;
54871;SDS011;43914;57.680;11.982;2022-11-15T00:45:13;10.98;;;4.47;;
54871;SDS011;43914;57.680;11.982;2022-11-15T00:47:39;9.43;;;4.40;;
54871;SDS011;43914;57.680;11.982;2022-11-15T00:50:05;10.10;;;4.12;;
54871;SDS011;43914;57.680;11.982;2022-11-15T00:52:33;10.72;;;4.75;;
54871;SDS011;43914;57.680;11.982;2022-11-15T00:54:59;8.73;;;4.17;;
54871;SDS011;43914;57.680;11.982;2022-11-15T00:57:25;10.03;;;4.27;;
54871;SDS011;43914;57.680;11.982;2022-11-15T00:59:51;8.57;;;4.17;;
54871;SDS011;43914;57.680;11.982;2022-11-15T01:02:17;11.25;;;4.90;;
54871;SDS011;43914;57.680;11.982;2022-11-15T01:04:43;10.27;;;4.80;;
54871;SDS011;43914;57.680;11.982;2022-11-15T01:07:10;10.58;;;4.53;;
54871;SDS011;43914;57.680;11.982;2022-11-15T01:09:37;11.40;;;4.62;;
54871;SDS011;43914;57.680;11.982;2022-11-15T01:12:03;9.70;;;4.60;;
54871;SDS011;43914;57.680;11.982;2022-11-15T01:14:29;9.28;;;4.35;;
54871;SDS011;43914;57.680;11.982;2022-11-15T01:16:55;8.55;;;4.42;;
54871;SDS011;43914;57.680;11.982;2022-11-15T01:19:21;9.70;;;4.50;;
54871;SDS011;43914;57.680;11.982;2022-11-15T01:21:52;10.25;;;4.75;;
54871;SDS011;43914;57.680;11.982;2022-11-15T01:24:15;9.58;;;4.42;;
54871;SDS011;43914;57.680;11.982;2022-11-15T01:26:42;10.30;;;4.70;;
54871;SDS011;43914;57.680;11.982;2022-11-15T01:29:08;9.30;;;4.28;;
54871;SDS011;43914;57.680;11.982;2022-11-15T01:31:34;9.43;;;4.80;;
54871;SDS011;43914;57.680;11.982;2022-11-15T01:34:00;9.97;;;4.33;;
54871;SDS011;43914;57.680;11.982;2022-11-15T01:36:25;9.13;;;4.33;;
54871;SDS011;43914;57.680;11.982;2022-11-15T01:38:55;10.20;;;4.65;;
54871;SDS011;43914;57.680;11.982;2022-11-15T01:41:24;9.73;;;4.20;;
54871;SDS011;43914;57.680;11.982;2022-11-15T01:43:54;10.95;;;4.83;;
54871;SDS011;43914;57.680;11.982;2022-11-15T01:46:33;9.38;;;4.47;;
54871;SDS011;43914;57.680;11.982;2022-11-15T01:49:02;7.75;;;3.37;;
54871;SDS011;43914;57.680;11.982;2022-11-15T01:51:37;10.85;;;4.97;;
54871;SDS011;43914;57.680;11.982;2022-11-15T01:54:05;8.83;;;4.10;;
54871;SDS011;43914;57.680;11.982;2022-11-15T01:56:36;11.20;;;4.50;;
54871;SDS011;43914;57.680;11.982;2022-11-15T02:01:35;8.78;;;4.15;;
54871;SDS011;43914;57.680;11.982;2022-11-15T02:04:04;10.45;;;4.35;;
54871;SDS011;43914;57.680;11.982;2022-11-15T02:06:36;10.28;;;4.15;;
54871;SDS011;43914;57.680;11.982;2022-11-15T02:09:04;10.20;;;4.67;;
54871;SDS011;43914;57.680;11.982;2022-11-15T02:11:30;12.28;;;5.22;;
54871;SDS011;43914;57.680;11.982;2022-11-15T02:13:56;13.50;;;4.58;;
54871;SDS011;43914;57.680;11.982;2022-11-15T02:31:39;9.93;;;4.47;;
54871;SDS011;43914;57.680;11.982;2022-11-15T02:34:19;11.97;;;5.03;;
54871;SDS011;43914;57.680;11.982;2022-11-15T02:39:39;10.85;;;4.60;;
54871;SDS011;43914;57.680;11.982;2022-11-15T02:42:20;12.18;;;4.75;;
54871;SDS011;43914;57.680;11.982;2022-11-15T02:45:07;11.33;;;4.95;;
54871;SDS011;43914;57.680;11.982;2022-11-15T02:47:41;10.30;;;4.97;;
54871;SDS011;43914;57.680;11.982;2022-11-15T02:50:16;11.03;;;4.95;;
54871;SDS011;43914;57.680;11.982;2022-11-15T02:52:44;9.48;;;4.47;;
54871;SDS011;43914;57.680;11.982;2022-11-15T03:12:04;11.05;;;4.80;;
54871;SDS011;43914;57.680;11.982;2022-11-15T03:14:49;11.35;;;5.03;;
54871;SDS011;43914;57.680;11.982;2022-11-15T03:17:22;11.85;;;5.30;;
54871;SDS011;43914;57.680;11.982;2022-11-15T03:20:03;10.40;;;5.08;;
54871;SDS011;43914;57.680;11.982;2022-11-15T03:22:33;10.95;;;5.60;;
54871;SDS011;43914;57.680;11.982;2022-11-15T03:27:38;10.28;;;5.55;;
54871;SDS011;43914;57.680;11.982;2022-11-15T03:30:10;13.43;;;5.28;;
54871;SDS011;43914;57.680;11.982;2022-11-15T03:32:39;10.72;;;5.60;;
54871;SDS011;43914;57.680;11.982;2022-11-15T03:35:11;10.80;;;5.75;;
54871;SDS011;43914;57.680;11.982;2022-11-15T03:37:58;12.15;;;5.97;;
54871;SDS011;43914;57.680;11.982;2022-11-15T03:40:40;11.05;;;5.65;;
54871;SDS011;43914;57.680;11.982;2022-11-15T03:46:13;14.05;;;6.17;;
54871;SDS011;43914;57.680;11.982;2022-11-15T03:51:15;9.78;;;5.17;;
54871;SDS011;43914;57.680;11.982;2022-11-15T03:53:42;12.45;;;6.20;;
54871;SDS011;43914;57.680;11.982;2022-11-15T03:56:08;12.85;;;5.95;;
54871;SDS011;43914;57.680;11.982;2022-11-15T03:58:34;11.10;;;5.40;;
54871;SDS011;43914;57.680;11.982;2022-11-15T04:01:00;11.23;;;5.33;;
54871;SDS011;43914;57.680;11.982;2022-11-15T04:03:26;12.10;;;6.03;;
54871;SDS011;43914;57.680;11.982;2022-11-15T04:05:52;11.18;;;5.83;;
54871;SDS011;43914;57.680;11.982;2022-11-15T04:08:18;12.37;;;7.10;;
54871;SDS011;43914;57.680;11.982;2022-11-15T04:10:45;13.80;;;6.87;;
54871;SDS011;43914;57.680;11.982;2022-11-15T04:13:17;13.45;;;6.20;;
54871;SDS011;43914;57.680;11.982;2022-11-15T04:15:43;13.80;;;6.73;;
54871;SDS011;43914;57.680;11.982;2022-11-15T04:18:09;10.97;;;6.03;;
54871;SDS011;43914;57.680;11.982;2022-11-15T04:20:34;12.80;;;6.43;;
54871;SDS011;43914;57.680;11.982;2022-11-15T04:26:11;11.25;;;5.60;;
54871;SDS011;43914;57.680;11.982;2022-11-15T04:28:36;12.58;;;7.05;;
54871;SDS011;43914;57.680;11.982;2022-11-15T04:31:07;12.73;;;6.50;;
54871;SDS011;43914;57.680;11.982;2022-11-15T04:33:36;12.55;;;7.03;;
54871;SDS011;43914;57.680;11.982;2022-11-15T04:36:02;16.30;;;7.23;;
54871;SDS011;43914;57.680;11.982;2022-11-15T04:38:46;14.95;;;6.87;;
54871;SDS011;43914;57.680;11.982;2022-11-15T04:41:12;10.50;;;5.87;;
54871;SDS011;43914;57.680;11.982;2022-11-15T04:43:38;12.63;;;7.00;;
54871;SDS011;43914;57.680;11.982;2022-11-15T04:46:04;14.13;;;7.60;;
54871;SDS011;43914;57.680;11.982;2022-11-15T04:48:30;11.50;;;6.20;;
54871;SDS011;43914;57.680;11.982;2022-11-15T04:50:56;13.93;;;6.30;;
54871;SDS011;43914;57.680;11.982;2022-11-15T04:53:22;11.60;;;6.03;;
54871;SDS011;43914;57.680;11.982;2022-11-15T04:55:48;14.28;;;7.00;;
54871;SDS011;43914;57.680;11.982;2022-11-15T04:58:14;16.37;;;6.90;;
54871;SDS011;43914;57.680;11.982;2022-11-15T05:00:40;12.60;;;6.10;;
54871;SDS011;43914;57.680;11.982;2022-11-15T05:03:06;12.87;;;6.77;;
54871;SDS011;43914;57.680;11.982;2022-11-15T05:05:53;12.40;;;6.42;;
54871;SDS011;43914;57.680;11.982;2022-11-15T05:08:19;13.77;;;6.40;;
54871;SDS011;43914;57.680;11.982;2022-11-15T05:10:46;12.78;;;6.40;;
54871;SDS011;43914;57.680;11.982;2022-11-15T05:13:17;10.50;;;5.47;;
54871;SDS011;43914;57.680;11.982;2022-11-15T05:15:43;11.67;;;5.27;;
54871;SDS011;43914;57.680;11.982;2022-11-15T05:18:09;12.35;;;5.80;;
54871;SDS011;43914;57.680;11.982;2022-11-15T05:20:36;12.13;;;5.92;;
54871;SDS011;43914;57.680;11.982;2022-11-15T05:23:06;13.97;;;5.97;;
54871;SDS011;43914;57.680;11.982;2022-11-15T05:25:35;11.68;;;5.25;;
54871;SDS011;43914;57.680;11.982;2022-11-15T05:28:02;12.10;;;5.50;;
54871;SDS011;43914;57.680;11.982;2022-11-15T05:30:29;11.70;;;5.67;;
54871;SDS011;43914;57.680;11.982;2022-11-15T05:32:55;12.63;;;6.22;;
54871;SDS011;43914;57.680;11.982;2022-11-15T05:35:27;12.58;;;5.58;;
54871;SDS011;43914;57.680;11.982;2022-11-15T05:37:59;13.68;;;5.50;;
54871;SDS011;43914;57.680;11.982;2022-11-15T05:40:25;12.33;;;6.37;;
54871;SDS011;43914;57.680;11.982;2022-11-15T05:42:52;11.75;;;6.03;;
54871;SDS011;43914;57.680;11.982;2022-11-15T05:45:19;13.13;;;5.40;;
54871;SDS011;43914;57.680;11.982;2022-11-15T05:47:45;13.78;;;6.30;;
54871;SDS011;43914;57.680;11.982;2022-11-15T05:50:12;12.63;;;6.55;;
54871;SDS011;43914;57.680;11.982;2022-11-15T05:52:41;12.65;;;6.10;;
54871;SDS011;43914;57.680;11.982;2022-11-15T05:55:09;11.60;;;6.00;;
54871;SDS011;43914;57.680;11.982;2022-11-15T05:57:35;13.55;;;5.87;;
54871;SDS011;43914;57.680;11.982;2022-11-15T06:00:02;14.53;;;6.60;;
54871;SDS011;43914;57.680;11.982;2022-11-15T06:02:29;13.62;;;6.10;;
54871;SDS011;43914;57.680;11.982;2022-11-15T06:04:55;12.13;;;6.10;;
54871;SDS011;43914;57.680;11.982;2022-11-15T06:07:21;14.23;;;6.83;;
54871;SDS011;43914;57.680;11.982;2022-11-15T06:09:47;13.30;;;5.25;;
54871;SDS011;43914;57.680;11.982;2022-11-15T06:12:13;12.90;;;5.80;;
54871;SDS011;43914;57.680;11.982;2022-11-15T06:14:39;12.23;;;5.83;;
54871;SDS011;43914;57.680;11.982;2022-11-15T06:17:05;12.07;;;5.33;;
54871;SDS011;43914;57.680;11.982;2022-11-15T06:19:30;13.27;;;5.83;;
54871;SDS011;43914;57.680;11.982;2022-11-15T06:22:02;12.43;;;5.75;;
54871;SDS011;43914;57.680;11.982;2022-11-15T06:24:25;11.75;;;5.80;;
54871;SDS011;43914;57.680;11.982;2022-11-15T06:26:51;11.03;;;5.13;;
54871;SDS011;43914;57.680;11.982;2022-11-15T06:29:18;13.50;;;5.70;;
54871;SDS011;43914;57.680;11.982;2022-11-15T06:31:44;11.33;;;5.40;;
54871;SDS011;43914;57.680;11.982;2022-11-15T06:34:10;11.97;;;5.17;;
54871;SDS011;43914;57.680;11.982;2022-11-15T06:36:36;11.30;;;5.22;;
54871;SDS011;43914;57.680;11.982;2022-11-15T06:39:03;10.38;;;4.75;;
54871;SDS011;43914;57.680;11.982;2022-11-15T06:41:29;10.25;;;4.90;;
54871;SDS011;43914;57.680;11.982;2022-11-15T06:43:56;11.22;;;5.17;;
54871;SDS011;43914;57.680;11.982;2022-11-15T06:46:22;9.23;;;4.33;;
54871;SDS011;43914;57.680;11.982;2022-11-15T06:48:50;10.33;;;4.50;;
54871;SDS011;43914;57.680;11.982;2022-11-15T06:51:17;11.20;;;5.42;;
54871;SDS011;43914;57.680;11.982;2022-11-15T06:53:43;9.60;;;4.55;;
54871;SDS011;43914;57.680;11.982;2022-11-15T06:56:10;11.05;;;5.10;;
54871;SDS011;43914;57.680;11.982;2022-11-15T06:58:36;13.40;;;5.87;;
54871;SDS011;43914;57.680;11.982;2022-11-15T07:01:06;11.07;;;5.30;;
54871;SDS011;43914;57.680;11.982;2022-11-15T07:03:35;10.75;;;4.97;;
54871;SDS011;43914;57.680;11.982;2022-11-15T07:06:03;11.03;;;5.33;;
54871;SDS011;43914;57.680;11.982;2022-11-15T07:08:29;11.25;;;5.30;;
54871;SDS011;43914;57.680;11.982;2022-11-15T07:11:00;9.43;;;4.37;;
54871;SDS011;43914;57.680;11.982;2022-11-15T07:13:30;11.05;;;5.03;;
54871;SDS011;43914;57.680;11.982;2022-11-15T07:16:01;11.25;;;5.30;;
54871;SDS011;43914;57.680;11.982;2022-11-15T07:18:30;11.10;;;4.65;;
54871;SDS011;43914;57.680;11.982;2022-11-15T07:20:59;12.63;;;4.67;;
54871;SDS011;43914;57.680;11.982;2022-11-15T07:23:31;12.28;;;4.75;;
54871;SDS011;43914;57.680;11.982;2022-11-15T07:25:57;11.55;;;5.47;;
54871;SDS011;43914;57.680;11.982;2022-11-15T07:28:24;10.93;;;4.92;;
54871;SDS011;43914;57.680;11.982;2022-11-15T07:30:56;10.53;;;4.40;;
54871;SDS011;43914;57.680;11.982;2022-11-15T07:33:22;9.33;;;4.20;;
54871;SDS011;43914;57.680;11.982;2022-11-15T07:35:51;10.10;;;3.92;;
54871;SDS011;43914;57.680;11.982;2022-11-15T07:38:16;11.68;;;4.45;;
54871;SDS011;43914;57.680;11.982;2022-11-15T07:40:45;9.28;;;4.20;;
54871;SDS011;43914;57.680;11.982;2022-11-15T07:43:12;9.65;;;4.37;;
54871;SDS011;43914;57.680;11.982;2022-11-15T07:45:45;9.45;;;4.10;;
54871;SDS011;43914;57.680;11.982;2022-11-15T07:48:11;9.50;;;4.03;;
54871;SDS011;43914;57.680;11.982;2022-11-15T07:50:40;10.35;;;4.62;;
54871;SDS011;43914;57.680;11.982;2022-11-15T07:53:08;9.18;;;4.60;;
54871;SDS011;43914;57.680;11.982;2022-11-15T07:55:35;8.68;;;3.83;;
54871;SDS011;43914;57.680;11.982;2022-11-15T07:58:07;10.35;;;4.20;;
54871;SDS011;43914;57.680;11.982;2022-11-15T08:00:32;9.13;;;4.12;;
54871;SDS011;43914;57.680;11.982;2022-11-15T08:03:09;9.68;;;4.12;;
54871;SDS011;43914;57.680;11.982;2022-11-15T08:05:38;11.00;;;4.50;;
54871;SDS011;43914;57.680;11.982;2022-11-15T08:08:06;7.75;;;3.33;;
54871;SDS011;43914;57.680;11.982;2022-11-15T08:10:34;10.90;;;4.87;;
54871;SDS011;43914;57.680;11.982;2022-11-15T08:13:04;9.35;;;3.67;;
54871;SDS011;43914;57.680;11.982;2022-11-15T08:15:33;10.20;;;3.98;;
54871;SDS011;43914;57.680;11.982;2022-11-15T08:18:02;10.40;;;4.37;;
54871;SDS011;43914;57.680;11.982;2022-11-15T08:20:37;11.68;;;4.90;;
54871;SDS011;43914;57.680;11.982;2022-11-15T08:23:03;8.68;;;4.08;;
54871;SDS011;43914;57.680;11.982;2022-11-15T08:25:31;9.68;;;4.35;;
54871;SDS011;43914;57.680;11.982;2022-11-15T08:28:00;9.50;;;4.62;;
54871;SDS011;43914;57.680;11.982;2022-11-15T08:30:29;11.15;;;4.92;;
54871;SDS011;43914;57.680;11.982;2022-11-15T08:32:57;11.28;;;4.78;;
54871;SDS011;43914;57.680;11.982;2022-11-15T08:35:24;9.05;;;4.17;;
54871;SDS011;43914;57.680;11.982;2022-11-15T08:37:51;9.05;;;4.33;;
54871;SDS011;43914;57.680;11.982;2022-11-15T08:40:19;10.38;;;4.70;;
54871;SDS011;43914;57.680;11.982;2022-11-15T08:42:48;9.65;;;4.53;;
54871;SDS011;43914;57.680;11.982;2022-11-15T08:45:14;10.55;;;4.75;;
54871;SDS011;43914;57.680;11.982;2022-11-15T08:47:40;8.93;;;4.55;;
54871;SDS011;43914;57.680;11.982;2022-11-15T08:50:06;10.20;;;4.17;;
54871;SDS011;43914;57.680;11.982;2022-11-15T08:52:33;10.28;;;4.22;;
54871;SDS011;43914;57.680;11.982;2022-11-15T08:54:59;12.43;;;4.30;;
54871;SDS011;43914;57.680;11.982;2022-11-15T08:57:27;9.00;;;4.03;;
54871;SDS011;43914;57.680;11.982;2022-11-15T08:59:59;11.83;;;4.80;;
54871;SDS011;43914;57.680;11.982;2022-11-15T09:02:24;12.00;;;4.30;;
54871;SDS011;43914;57.680;11.982;2022-11-15T09:04:50;9.43;;;4.03;;
54871;SDS011;43914;57.680;11.982;2022-11-15T09:07:16;9.27;;;4.77;;
54871;SDS011;43914;57.680;11.982;2022-11-15T09:09:43;8.75;;;3.85;;
54871;SDS011;43914;57.680;11.982;2022-11-15T09:12:09;9.98;;;4.30;;
54871;SDS011;43914;57.680;11.982;2022-11-15T09:14:35;10.48;;;4.25;;
54871;SDS011;43914;57.680;11.982;2022-11-15T09:17:01;10.60;;;4.40;;
54871;SDS011;43914;57.680;11.982;2022-11-15T09:19:31;10.38;;;4.35;;
54871;SDS011;43914;57.680;11.982;2022-11-15T09:21:57;10.30;;;4.50;;
54871;SDS011;43914;57.680;11.982;2022-11-15T09:24:23;9.43;;;4.17;;
54871;SDS011;43914;57.680;11.982;2022-11-15T09:26:49;10.78;;;4.65;;
54871;SDS011;43914;57.680;11.982;2022-11-15T09:29:16;9.23;;;4.05;;
54871;SDS011;43914;57.680;11.982;2022-11-15T09:31:43;10.30;;;4.87;;
54871;SDS011;43914;57.680;11.982;2022-11-15T09:34:09;9.67;;;3.93;;
54871;SDS011;43914;57.680;11.982;2022-11-15T09:36:35;9.50;;;4.12;;
54871;SDS011;43914;57.680;11.982;2022-11-15T09:39:01;9.48;;;4.42;;
54871;SDS011;43914;57.680;11.982;2022-11-15T09:41:40;8.95;;;3.85;;
54871;SDS011;43914;57.680;11.982;2022-11-15T09:50:09;9.35;;;3.98;;
54871;SDS011;43914;57.680;11.982;2022-11-15T09:52:39;7.25;;;2.95;;
54871;SDS011;43914;57.680;11.982;2022-11-15T09:55:11;9.58;;;3.92;;
54871;SDS011;43914;57.680;11.982;2022-11-15T09:57:44;8.68;;;3.33;;
54871;SDS011;43914;57.680;11.982;2022-11-15T10:00:33;9.33;;;3.80;;
54871;SDS011;43914;57.680;11.982;2022-11-15T10:03:10;9.15;;;4.20;;
54871;SDS011;43914;57.680;11.982;2022-11-15T10:05:55;9.15;;;3.80;;
54871;SDS011;43914;57.680;11.982;2022-11-15T10:08:40;8.43;;;3.58;;
54871;SDS011;43914;57.680;11.982;2022-11-15T10:11:31;9.23;;;3.55;;
54871;SDS011;43914;57.680;11.982;2022-11-15T10:14:01;8.73;;;3.52;;
54871;SDS011;43914;57.680;11.982;2022-11-15T10:25:21;8.07;;;3.33;;
54871;SDS011;43914;57.680;11.982;2022-11-15T10:30:51;9.63;;;4.15;;
54871;SDS011;43914;57.680;11.982;2022-11-15T10:33:19;8.33;;;3.83;;
54871;SDS011;43914;57.680;11.982;2022-11-15T10:41:29;9.78;;;3.92;;
54871;SDS011;43914;57.680;11.982;2022-11-15T10:44:03;10.00;;;4.40;;
54871;SDS011;43914;57.680;11.982;2022-11-15T10:46:36;9.30;;;3.83;;
54871;SDS011;43914;57.680;11.982;2022-11-15T10:51:48;8.90;;;3.77;;
54871;SDS011;43914;57.680;11.982;2022-11-15T10:59:31;10.32;;;4.20;;
54871;SDS011;43914;57.680;11.982;2022-11-15T11:02:01;9.05;;;3.40;;
54871;SDS011;43914;57.680;11.982;2022-11-15T11:04:27;9.40;;;4.08;;
54871;SDS011;43914;57.680;11.982;2022-11-15T11:06:54;9.57;;;3.60;;
54871;SDS011;43914;57.680;11.982;2022-11-15T11:09:27;9.88;;;3.20;;
54871;SDS011;43914;57.680;11.982;2022-11-15T11:12:09;10.98;;;4.17;;
54871;SDS011;43914;57.680;11.982;2022-11-15T11:14:38;10.45;;;4.10;;
54871;SDS011;43914;57.680;11.982;2022-11-15T11:25:22;9.15;;;4.10;;
54871;SDS011;43914;57.680;11.982;2022-11-15T11:28:05;8.20;;;3.30;;
54871;SDS011;43914;57.680;11.982;2022-11-15T11:40:20;7.33;;;3.10;;
54871;SDS011;43914;57.680;11.982;2022-11-15T11:43:02;8.43;;;3.45;;
54871;SDS011;43914;57.680;11.982;2022-11-15T11:51:24;8.78;;;3.92;;
54871;SDS011;43914;57.680;11.982;2022-11-15T11:53:58;8.38;;;3.50;;
54871;SDS011;43914;57.680;11.982;2022-11-15T11:56:46;8.90;;;3.45;;
54871;SDS011;43914;57.680;11.982;2022-11-15T12:04:49;7.60;;;3.10;;
54871;SDS011;43914;57.680;11.982;2022-11-15T12:07:19;7.87;;;2.60;;
54871;SDS011;43914;57.680;11.982;2022-11-15T12:09:59;7.62;;;2.98;;
54871;SDS011;43914;57.680;11.982;2022-11-15T12:13:02;9.55;;;2.75;;
54871;SDS011;43914;57.680;11.982;2022-11-15T12:18:25;7.37;;;2.85;;
54871;SDS011;43914;57.680;11.982;2022-11-15T12:20:59;7.92;;;2.87;;
54871;SDS011;43914;57.680;11.982;2022-11-15T12:23:27;8.25;;;2.65;;
54871;SDS011;43914;57.680;11.982;2022-11-15T12:26:08;8.90;;;2.83;;
54871;SDS011;43914;57.680;11.982;2022-11-15T12:28:42;7.72;;;2.70;;
54871;SDS011;43914;57.680;11.982;2022-11-15T12:31:17;7.67;;;2.40;;
54871;SDS011;43914;57.680;11.982;2022-11-15T12:33:49;8.00;;;2.33;;
54871;SDS011;43914;57.680;11.982;2022-11-15T12:41:41;6.87;;;2.37;;
54871;SDS011;43914;57.680;11.982;2022-11-15T12:44:15;7.65;;;2.30;;
54871;SDS011;43914;57.680;11.982;2022-11-15T12:47:00;7.25;;;2.55;;
54871;SDS011;43914;57.680;11.982;2022-11-15T12:49:48;7.53;;;2.30;;
54871;SDS011;43914;57.680;11.982;2022-11-15T12:52:15;6.55;;;2.55;;
54871;SDS011;43914;57.680;11.982;2022-11-15T12:59:58;7.87;;;2.47;;
54871;SDS011;43914;57.680;11.982;2022-11-15T13:02:30;7.03;;;2.37;;
54871;SDS011;43914;57.680;11.982;2022-11-15T13:13:00;8.30;;;2.35;;
54871;SDS011;43914;57.680;11.982;2022-11-15T13:18:23;6.92;;;2.10;;
54871;SDS011;43914;57.680;11.982;2022-11-15T13:21:02;6.53;;;2.10;;
54871;SDS011;43914;57.680;11.982;2022-11-15T13:23:33;6.20;;;1.95;;
54871;SDS011;43914;57.680;11.982;2022-11-15T13:36:53;5.42;;;1.60;;
54871;SDS011;43914;57.680;11.982;2022-11-15T13:39:25;5.05;;;1.35;;
54871;SDS011;43914;57.680;11.982;2022-11-15T13:41:57;4.78;;;1.40;;
54871;SDS011;43914;57.680;11.982;2022-11-15T13:44:25;5.25;;;1.30;;
54871;SDS011;43914;57.680;11.982;2022-11-15T13:47:04;5.80;;;1.40;;
54871;SDS011;43914;57.680;11.982;2022-11-15T13:49:41;5.33;;;1.60;;
54871;SDS011;43914;57.680;11.982;2022-11-15T13:52:09;4.72;;;1.60;;
54871;SDS011;43914;57.680;11.982;2022-11-15T13:57:43;5.65;;;1.57;;
54871;SDS011;43914;57.680;11.982;2022-11-15T14:08:42;5.25;;;1.60;;
54871;SDS011;43914;57.680;11.982;2022-11-15T14:11:23;5.42;;;1.72;;
54871;SDS011;43914;57.680;11.982;2022-11-15T14:16:44;6.08;;;1.72;;
54871;SDS011;43914;57.680;11.982;2022-11-15T14:25:04;4.97;;;1.50;;
54871;SDS011;43914;57.680;11.982;2022-11-15T14:27:33;4.15;;;1.35;;
54871;SDS011;43914;57.680;11.982;2022-11-15T14:30:02;5.75;;;1.30;;
54871;SDS011;43914;57.680;11.982;2022-11-15T14:32:29;4.45;;;1.47;;
54871;SDS011;43914;57.680;11.982;2022-11-15T14:35:09;4.62;;;1.25;;
54871;SDS011;43914;57.680;11.982;2022-11-15T14:37:48;2.22;;;0.80;;
54871;SDS011;43914;57.680;11.982;2022-11-15T14:40:17;3.50;;;1.10;;
54871;SDS011;43914;57.680;11.982;2022-11-15T14:42:46;3.80;;;1.17;;
54871;SDS011;43914;57.680;11.982;2022-11-15T14:45:18;3.50;;;1.10;;
54871;SDS011;43914;57.680;11.982;2022-11-15T14:47:46;4.15;;;1.30;;
54871;SDS011;43914;57.680;11.982;2022-11-15T14:50:17;5.03;;;1.20;;
54871;SDS011;43914;57.680;11.982;2022-11-15T14:52:47;3.80;;;1.15;;
54871;SDS011;43914;57.680;11.982;2022-11-15T14:55:19;4.42;;;1.10;;
54871;SDS011;43914;57.680;11.982;2022-11-15T14:57:48;3.37;;;1.10;;
54871;SDS011;43914;57.680;11.982;2022-11-15T15:00:15;3.85;;;1.10;;
54871;SDS011;43914;57.680;11.982;2022-11-15T15:02:44;5.03;;;1.22;;
54871;SDS011;43914;57.680;11.982;2022-11-15T15:07:58;2.95;;;0.90;;
54871;SDS011;43914;57.680;11.982;2022-11-15T15:10:25;3.37;;;1.15;;
54871;SDS011;43914;57.680;11.982;2022-11-15T15:13:02;3.95;;;1.00;;
54871;SDS011;43914;57.680;11.982;2022-11-15T15:15:37;3.25;;;0.90;;
54871;SDS011;43914;57.680;11.982;2022-11-15T15:18:02;2.85;;;0.80;;
54871;SDS011;43914;57.680;11.982;2022-11-15T15:20:30;4.30;;;1.10;;
54871;SDS011;43914;57.680;11.982;2022-11-15T15:22:57;2.80;;;0.98;;
54871;SDS011;43914;57.680;11.982;2022-11-15T15:25:26;2.83;;;0.90;;
54871;SDS011;43914;57.680;11.982;2022-11-15T15:27:54;3.90;;;1.00;;
54871;SDS011;43914;57.680;11.982;2022-11-15T15:30:21;4.75;;;1.12;;
54871;SDS011;43914;57.680;11.982;2022-11-15T15:32:49;4.95;;;1.10;;
54871;SDS011;43914;57.680;11.982;2022-11-15T15:35:16;4.28;;;1.10;;
54871;SDS011;43914;57.680;11.982;2022-11-15T15:37:43;3.62;;;0.80;;
54871;SDS011;43914;57.680;11.982;2022-11-15T15:40:20;3.17;;;0.90;;
54871;SDS011;43914;57.680;11.982;2022-11-15T15:42:51;2.27;;;0.72;;
54871;SDS011;43914;57.680;11.982;2022-11-15T15:45:17;3.80;;;0.82;;
54871;SDS011;43914;57.680;11.982;2022-11-15T15:47:44;2.27;;;0.70;;
54871;SDS011;43914;57.680;11.982;2022-11-15T15:52:52;3.35;;;0.80;;
54871;SDS011;43914;57.680;11.982;2022-11-15T15:55:21;2.58;;;0.70;;
54871;SDS011;43914;57.680;11.982;2022-11-15T15:57:47;1.82;;;0.70;;
54871;SDS011;43914;57.680;11.982;2022-11-15T16:00:13;2.30;;;0.70;;
54871;SDS011;43914;57.680;11.982;2022-11-15T16:02:41;2.92;;;0.60;;
54871;SDS011;43914;57.680;11.982;2022-11-15T16:05:07;1.85;;;0.65;;
54871;SDS011;43914;57.680;11.982;2022-11-15T16:07:35;2.72;;;0.70;;
54871;SDS011;43914;57.680;11.982;2022-11-15T16:10:24;1.40;;;0.60;;
54871;SDS011;43914;57.680;11.982;2022-11-15T16:12:50;2.17;;;0.60;;
54871;SDS011;43914;57.680;11.982;2022-11-15T16:15:18;2.12;;;0.70;;
54871;SDS011;43914;57.680;11.982;2022-11-15T16:17:50;4.12;;;0.60;;
54871;SDS011;43914;57.680;11.982;2022-11-15T16:20:39;2.40;;;0.70;;
54871;SDS011;43914;57.680;11.982;2022-11-15T16:23:07;2.22;;;0.80;;
54871;SDS011;43914;57.680;11.982;2022-11-15T16:25:54;3.30;;;0.75;;
54871;SDS011;43914;57.680;11.982;2022-11-15T16:28:04;3.20;;;0.85;;
54871;SDS011;43914;57.680;11.982;2022-11-15T16:30:30;4.33;;;0.87;;
54871;SDS011;43914;57.680;11.982;2022-11-15T16:32:56;2.92;;;0.70;;
54871;SDS011;43914;57.680;11.982;2022-11-15T16:35:22;3.60;;;0.80;;
54871;SDS011;43914;57.680;11.982;2022-11-15T16:37:48;2.33;;;0.80;;
54871;SDS011;43914;57.680;11.982;2022-11-15T16:40:29;2.45;;;0.62;;
54871;SDS011;43914;57.680;11.982;2022-11-15T16:42:59;1.82;;;0.62;;
54871;SDS011;43914;57.680;11.982;2022-11-15T16:45:27;3.10;;;0.80;;
54871;SDS011;43914;57.680;11.982;2022-11-15T16:47:54;3.75;;;0.72;;
54871;SDS011;43914;57.680;11.982;2022-11-15T16:50:23;2.60;;;0.85;;
54871;SDS011;43914;57.680;11.982;2022-11-15T16:52:54;6.87;;;0.70;;
54871;SDS011;43914;57.680;11.982;2022-11-15T16:55:23;1.95;;;0.70;;
54871;SDS011;43914;57.680;11.982;2022-11-15T16:57:52;2.52;;;0.80;;
54871;SDS011;43914;57.680;11.982;2022-11-15T17:00:20;4.37;;;0.90;;
54871;SDS011;43914;57.680;11.982;2022-11-15T17:02:49;2.52;;;0.70;;
54871;SDS011;43914;57.680;11.982;2022-11-15T17:05:20;1.32;;;0.60;;
54871;SDS011;43914;57.680;11.982;2022-11-15T17:07:48;2.80;;;0.80;;
54871;SDS011;43914;57.680;11.982;2022-11-15T17:10:19;2.60;;;0.80;;
54871;SDS011;43914;57.680;11.982;2022-11-15T17:12:47;1.55;;;0.60;;
54871;SDS011;43914;57.680;11.982;2022-11-15T17:15:14;4.37;;;0.80;;
54871;SDS011;43914;57.680;11.982;2022-11-15T17:17:41;3.90;;;0.82;;
54871;SDS011;43914;57.680;11.982;2022-11-15T17:20:12;6.28;;;0.95;;
54871;SDS011;43914;57.680;11.982;2022-11-15T17:22:41;2.77;;;0.82;;
54871;SDS011;43914;57.680;11.982;2022-11-15T17:25:07;2.95;;;0.75;;
54871;SDS011;43914;57.680;11.982;2022-11-15T17:27:36;4.72;;;1.10;;
54871;SDS011;43914;57.680;11.982;2022-11-15T17:30:02;2.42;;;0.70;;
54871;SDS011;43914;57.680;11.982;2022-11-15T17:32:29;3.72;;;0.90;;